createdAt,value
2022-09-23T00:01:27.123Z,11.20
2022-09-23T00:03:56.397Z,11.10
2022-09-23T00:06:25.442Z,11.10
2022-09-23T00:08:53.968Z,11.00
2022-09-23T00:11:24.804Z,11.00
2022-09-23T00:13:55.736Z,11.00
2022-09-23T00:16:26.000Z,11.00
2022-09-23T00:18:54.236Z,10.90
2022-09-23T00:21:23.177Z,10.90
2022-09-23T00:23:51.720Z,10.90
2022-09-23T00:26:21.563Z,10.90
2022-09-23T00:28:51.891Z,10.90
2022-09-23T00:31:22.989Z,10.90
2022-09-23T00:33:55.034Z,10.80
2022-09-23T00:36:23.435Z,10.80
2022-09-23T00:38:51.668Z,10.80
2022-09-23T00:41:20.110Z,10.80
2022-09-23T00:43:52.906Z,10.80
2022-09-23T00:46:26.463Z,10.80
2022-09-23T00:49:01.378Z,10.80
2022-09-23T00:51:34.628Z,10.80
2022-09-23T00:54:03.833Z,10.80
2022-09-23T00:56:33.937Z,10.70
2022-09-23T00:59:04.373Z,10.70
2022-09-23T01:01:32.604Z,10.70
2022-09-23T01:04:00.800Z,10.70
2022-09-23T01:06:29.443Z,10.60
2022-09-23T01:08:57.566Z,10.60
2022-09-23T01:11:37.615Z,10.60
2022-09-23T01:14:24.163Z,10.60
2022-09-23T01:16:58.762Z,10.50
2022-09-23T01:19:44.307Z,10.50
2022-09-23T01:22:19.139Z,10.50
2022-09-23T01:24:50.060Z,10.50
2022-09-23T01:27:36.558Z,10.40
2022-09-23T01:30:17.893Z,10.40
2022-09-23T01:33:04.914Z,10.40
2022-09-23T01:35:51.668Z,10.40
2022-09-23T01:38:32.738Z,10.30
2022-09-23T01:41:12.508Z,10.30
2022-09-23T01:43:48.861Z,10.30
2022-09-23T01:46:21.736Z,10.30
2022-09-23T01:48:59.139Z,10.20
2022-09-23T01:51:30.813Z,10.20
2022-09-23T01:54:07.467Z,10.10
2022-09-23T01:56:40.418Z,10.10
2022-09-23T01:59:14.410Z,10.00
2022-09-23T02:01:48.399Z,10.00
2022-09-23T02:04:23.450Z,9.90
2022-09-23T02:06:56.410Z,9.90
2022-09-23T02:09:29.200Z,9.90
2022-09-23T02:12:06.187Z,9.90
2022-09-23T02:14:39.655Z,9.80
2022-09-23T02:17:13.119Z,9.80
2022-09-23T02:19:47.836Z,9.80
2022-09-23T02:22:21.916Z,9.80
2022-09-23T02:24:50.736Z,9.80
2022-09-23T02:27:25.844Z,9.70
2022-09-23T02:30:03.987Z,9.70
2022-09-23T02:32:37.058Z,9.70
2022-09-23T02:35:18.028Z,9.70
2022-09-23T02:37:53.174Z,9.70
2022-09-23T02:40:25.199Z,9.70
2022-09-23T02:43:05.335Z,9.70
2022-09-23T02:45:33.868Z,9.70
2022-09-23T02:48:06.357Z,9.60
2022-09-23T02:50:36.512Z,9.70
2022-09-23T02:53:04.895Z,9.70
2022-09-23T02:55:33.374Z,9.60
2022-09-23T02:58:02.586Z,9.70
2022-09-23T03:00:40.565Z,9.70
2022-09-23T03:03:27.490Z,9.60
2022-09-23T03:05:59.322Z,9.60
2022-09-23T03:08:39.491Z,9.60
2022-09-23T03:11:10.550Z,9.50
2022-09-23T03:13:53.275Z,9.50
2022-09-23T03:16:30.207Z,9.50
2022-09-23T03:19:08.851Z,9.50
2022-09-23T03:21:45.898Z,9.50
2022-09-23T03:24:15.862Z,9.50
2022-09-23T03:26:47.735Z,9.40
2022-09-23T03:29:18.068Z,9.40
2022-09-23T03:31:46.673Z,9.40
2022-09-23T03:34:19.162Z,9.40
2022-09-23T03:37:00.545Z,9.40
2022-09-23T03:39:35.393Z,9.30
2022-09-23T03:42:08.268Z,9.30
2022-09-23T03:44:39.109Z,9.30
2022-09-23T03:47:07.598Z,9.30
2022-09-23T03:49:39.223Z,9.30
2022-09-23T03:52:08.943Z,9.30
2022-09-23T03:54:37.139Z,9.30
2022-09-23T03:57:05.632Z,9.40
2022-09-23T03:59:34.094Z,9.30
2022-09-23T04:02:02.590Z,9.30
2022-09-23T04:04:32.447Z,9.30
2022-09-23T04:07:00.843Z,9.30
2022-09-23T04:09:30.732Z,9.30
2022-09-23T04:11:58.942Z,9.20
2022-09-23T04:14:27.159Z,9.20
2022-09-23T04:16:55.365Z,9.20
2022-09-23T04:19:23.542Z,9.20
2022-09-23T04:21:51.751Z,9.30
2022-09-23T04:24:20.031Z,9.30
2022-09-23T04:26:52.972Z,9.30
2022-09-23T04:29:21.667Z,9.30
2022-09-23T04:31:49.954Z,9.30
2022-09-23T04:34:19.518Z,9.30
2022-09-23T04:36:48.711Z,9.30
2022-09-23T04:39:18.052Z,9.30
2022-09-23T04:41:46.685Z,9.30
2022-09-23T04:44:17.188Z,9.30
2022-09-23T04:46:48.241Z,9.30
2022-09-23T04:49:16.909Z,9.30
2022-09-23T04:51:45.116Z,9.30
2022-09-23T04:54:14.906Z,9.30
2022-09-23T04:56:43.343Z,9.20
2022-09-23T04:59:11.428Z,9.20
2022-09-23T05:01:41.196Z,9.20
2022-09-23T05:04:13.872Z,9.20
2022-09-23T05:06:45.329Z,9.20
2022-09-23T05:09:17.665Z,9.20
2022-09-23T05:11:46.569Z,9.20
2022-09-23T05:14:15.015Z,9.20
2022-09-23T05:16:44.619Z,9.20
2022-09-23T05:19:13.493Z,9.10
2022-09-23T05:21:41.778Z,9.10
2022-09-23T05:24:12.906Z,9.10
2022-09-23T05:26:41.584Z,9.10
2022-09-23T05:29:09.994Z,9.20
2022-09-23T05:31:38.168Z,9.20
2022-09-23T05:34:08.360Z,9.20
2022-09-23T05:36:39.031Z,9.20
2022-09-23T05:39:08.636Z,9.30
2022-09-23T05:41:37.345Z,9.30
2022-09-23T05:44:05.782Z,9.40
2022-09-23T05:46:34.490Z,9.40
2022-09-23T05:49:04.513Z,9.50
2022-09-23T05:51:35.727Z,9.60
2022-09-23T05:54:04.493Z,9.60
2022-09-23T05:56:34.322Z,9.70
2022-09-23T05:59:04.195Z,9.70
2022-09-23T06:01:36.774Z,9.70
2022-09-23T06:04:07.549Z,9.80
2022-09-23T06:06:40.249Z,9.80
2022-09-23T06:09:11.406Z,9.90
2022-09-23T06:11:39.729Z,9.90
2022-09-23T06:14:09.684Z,10.00
2022-09-23T06:16:37.930Z,10.00
2022-09-23T06:19:07.058Z,10.10
2022-09-23T06:21:38.647Z,10.10
2022-09-23T06:24:08.365Z,10.20
2022-09-23T06:26:37.955Z,10.30
2022-09-23T06:29:10.815Z,10.30
2022-09-23T06:31:41.888Z,10.40
2022-09-23T06:34:13.406Z,10.50
2022-09-23T06:36:46.182Z,10.50
2022-09-23T06:39:15.770Z,10.60
2022-09-23T06:41:44.309Z,10.70
2022-09-23T06:44:12.539Z,10.70
2022-09-23T06:46:40.674Z,10.80
2022-09-23T06:49:09.747Z,10.90
2022-09-23T06:51:37.880Z,11.00
2022-09-23T06:54:07.824Z,11.00
2022-09-23T06:56:39.197Z,11.10
2022-09-23T06:59:08.984Z,11.20
2022-09-23T07:01:37.227Z,11.30
2022-09-23T07:04:07.918Z,11.40
2022-09-23T07:06:36.401Z,11.50
2022-09-23T07:09:05.566Z,11.60
2022-09-23T07:11:35.408Z,11.80
2022-09-23T07:14:03.649Z,11.90
2022-09-23T07:16:33.023Z,12.10
2022-09-23T07:19:01.250Z,12.30
2022-09-23T07:21:29.422Z,12.40
2022-09-23T07:23:58.299Z,12.60
2022-09-23T07:26:27.538Z,12.70
2022-09-23T07:29:04.691Z,12.90
2022-09-23T07:31:39.192Z,13.10
2022-09-23T07:34:09.927Z,13.20
2022-09-23T07:36:40.733Z,13.40
2022-09-23T07:39:09.684Z,13.60
2022-09-23T07:41:38.086Z,13.70
2022-09-23T07:44:08.201Z,13.90
2022-09-23T07:46:38.110Z,14.00
2022-09-23T07:49:07.121Z,14.20
2022-09-23T07:51:37.385Z,14.30
2022-09-23T07:54:07.823Z,14.40
2022-09-23T07:56:36.606Z,14.60
2022-09-23T07:59:05.098Z,14.80
2022-09-23T08:01:36.770Z,15.00
2022-09-23T08:04:07.707Z,15.30
2022-09-23T08:06:36.030Z,15.60
2022-09-23T08:09:04.406Z,15.90
2022-09-23T08:11:33.062Z,16.20
2022-09-23T08:14:01.583Z,16.50
2022-09-23T08:16:29.902Z,16.80
2022-09-23T08:18:59.615Z,17.10
2022-09-23T08:21:28.094Z,17.40
2022-09-23T08:23:56.331Z,17.70
2022-09-23T08:26:25.066Z,18.00
2022-09-23T08:28:54.647Z,18.30
2022-09-23T08:31:23.160Z,18.60
2022-09-23T08:33:56.272Z,18.90
2022-09-23T08:36:26.623Z,19.30
2022-09-23T08:38:55.325Z,19.60
2022-09-23T08:41:34.655Z,19.90
2022-09-23T08:44:06.093Z,20.20
2022-09-23T08:46:38.774Z,20.60
2022-09-23T08:49:08.254Z,20.90
2022-09-23T08:51:46.087Z,21.10
2022-09-23T08:54:15.172Z,21.40
2022-09-23T08:56:45.779Z,21.70
2022-09-23T08:59:20.008Z,21.90
2022-09-23T09:01:53.151Z,22.10
2022-09-23T09:04:25.818Z,22.40
2022-09-23T09:07:12.395Z,22.60
2022-09-23T09:09:49.887Z,22.80
2022-09-23T09:12:20.652Z,23.00
2022-09-23T09:14:58.460Z,23.20
2022-09-23T09:17:35.280Z,23.20
2022-09-23T09:20:20.069Z,23.40
2022-09-23T09:22:57.693Z,23.50
2022-09-23T09:25:42.261Z,23.50
2022-09-23T09:28:16.720Z,23.50
2022-09-23T09:30:48.538Z,23.50
2022-09-23T09:33:19.178Z,23.60
2022-09-23T09:36:11.993Z,23.60
2022-09-23T09:38:41.828Z,23.80
2022-09-23T09:41:16.172Z,23.90
2022-09-23T09:43:52.355Z,23.90
2022-09-23T09:46:51.997Z,24.00
2022-09-23T09:49:30.755Z,24.20
2022-09-23T09:52:20.195Z,24.20
2022-09-23T09:54:50.933Z,24.30
2022-09-23T09:57:35.147Z,24.40
2022-09-23T10:00:20.383Z,24.50
2022-09-23T10:02:53.152Z,24.50
2022-09-23T10:05:28.383Z,24.60
2022-09-23T10:07:56.988Z,24.70
2022-09-23T10:10:32.836Z,24.70
2022-09-23T10:13:16.729Z,24.80
2022-09-23T10:15:46.064Z,24.90
2022-09-23T10:18:22.242Z,24.90
2022-09-23T10:20:51.885Z,25.10
2022-09-23T10:23:28.321Z,25.40
2022-09-23T10:26:02.171Z,25.70
2022-09-23T10:28:51.978Z,26.10
2022-09-23T10:31:25.910Z,26.50
2022-09-23T10:33:57.352Z,26.80
2022-09-23T10:36:25.586Z,27.00
2022-09-23T10:39:17.388Z,27.10
2022-09-23T10:42:16.233Z,27.20
2022-09-23T10:45:17.261Z,27.30
2022-09-23T10:47:56.868Z,27.40
2022-09-23T10:50:40.040Z,27.50
2022-09-23T10:53:13.749Z,27.60
2022-09-23T10:55:52.622Z,27.60
2022-09-23T10:58:51.650Z,27.70
2022-09-23T11:01:32.182Z,27.70
2022-09-23T11:04:38.489Z,27.60
2022-09-23T11:07:18.364Z,27.50
2022-09-23T11:10:18.446Z,27.40
2022-09-23T11:13:01.733Z,27.40
2022-09-23T11:15:44.605Z,27.50
2022-09-23T11:18:42.899Z,27.60
2022-09-23T11:21:34.653Z,27.80
2022-09-23T11:24:35.948Z,28.00
2022-09-23T11:27:17.061Z,28.10
2022-09-23T11:30:08.337Z,28.10
2022-09-23T11:33:13.982Z,28.00
2022-09-23T11:35:49.517Z,28.00
2022-09-23T11:38:26.164Z,28.00
2022-09-23T11:40:58.358Z,28.00
2022-09-23T11:43:29.307Z,28.10
2022-09-23T11:46:02.217Z,28.30
2022-09-23T11:48:33.862Z,28.40
2022-09-23T11:51:07.465Z,28.50
2022-09-23T11:53:44.419Z,28.50
2022-09-23T11:56:32.396Z,28.50
2022-09-23T11:59:10.025Z,28.50
2022-09-23T12:01:45.718Z,28.40
2022-09-23T12:04:23.675Z,28.30
2022-09-23T12:07:01.631Z,28.20
2022-09-23T12:09:57.788Z,28.10
2022-09-23T12:12:31.630Z,28.00
2022-09-23T12:15:03.621Z,27.90
2022-09-23T12:17:58.288Z,27.80
2022-09-23T12:20:58.173Z,27.70
2022-09-23T12:23:52.341Z,27.70
2022-09-23T12:26:22.914Z,27.70
2022-09-23T12:28:52.938Z,27.60
2022-09-23T12:31:30.665Z,27.50
2022-09-23T12:34:01.735Z,27.50
2022-09-23T12:36:34.860Z,27.40
2022-09-23T12:39:07.745Z,27.30
2022-09-23T12:41:38.832Z,27.30
2022-09-23T12:44:34.537Z,27.20
2022-09-23T12:47:39.662Z,27.10
2022-09-23T12:50:45.160Z,27.10
2022-09-23T12:53:53.724Z,27.20
2022-09-23T12:56:26.629Z,27.20
2022-09-23T12:59:21.875Z,27.30
2022-09-23T13:01:50.352Z,27.40
2022-09-23T13:04:51.700Z,27.60
2022-09-23T13:07:24.439Z,27.80
2022-09-23T13:09:57.251Z,27.90
2022-09-23T13:12:33.135Z,27.90
2022-09-23T13:15:06.349Z,27.90
2022-09-23T13:17:38.279Z,27.90
2022-09-23T13:20:29.156Z,27.80
2022-09-23T13:23:22.703Z,27.60
2022-09-23T13:25:52.676Z,27.50
2022-09-23T13:28:34.642Z,27.30
2022-09-23T13:31:06.350Z,27.10
2022-09-23T13:33:44.000Z,26.90
2022-09-23T13:36:14.836Z,26.80
2022-09-23T13:38:43.443Z,26.60
2022-09-23T13:41:16.273Z,26.50
2022-09-23T13:43:49.076Z,26.50
2022-09-23T13:46:20.497Z,26.50
2022-09-23T13:48:51.919Z,26.60
2022-09-23T13:51:25.031Z,26.70
2022-09-23T13:53:55.460Z,26.80
2022-09-23T13:56:24.977Z,26.90
2022-09-23T13:58:55.863Z,27.00
2022-09-23T14:01:31.238Z,27.10
2022-09-23T14:03:59.636Z,27.10
2022-09-23T14:06:28.899Z,27.10
2022-09-23T14:09:02.446Z,27.10
2022-09-23T14:11:36.222Z,27.10
2022-09-23T14:14:07.513Z,27.00
2022-09-23T14:16:39.819Z,27.00
2022-09-23T14:19:08.982Z,26.90
2022-09-23T14:21:38.741Z,26.70
2022-09-23T14:24:19.018Z,26.60
2022-09-23T14:26:54.141Z,26.50
2022-09-23T14:29:28.043Z,26.30
2022-09-23T14:32:03.197Z,26.20
2022-09-23T14:34:45.981Z,26.10
2022-09-23T14:37:57.415Z,25.90
2022-09-23T14:40:35.994Z,25.80
2022-09-23T14:43:07.650Z,25.60
2022-09-23T14:45:39.687Z,25.50
2022-09-23T14:48:10.922Z,25.40
2022-09-23T14:50:40.655Z,25.40
2022-09-23T14:53:45.734Z,25.40
2022-09-23T14:56:20.050Z,25.40
2022-09-23T14:58:56.616Z,25.40
2022-09-23T15:01:40.443Z,25.40
2022-09-23T15:04:15.581Z,25.40
2022-09-23T15:06:49.029Z,25.30
2022-09-23T15:09:24.816Z,25.20
2022-09-23T15:11:55.078Z,25.10
2022-09-23T15:14:39.746Z,25.00
2022-09-23T15:17:19.280Z,24.90
2022-09-23T15:19:54.447Z,24.90
2022-09-23T15:22:23.073Z,24.90
2022-09-23T15:24:55.328Z,24.90
2022-09-23T15:27:32.833Z,24.90
2022-09-23T15:30:20.078Z,24.90
2022-09-23T15:32:49.551Z,24.80
2022-09-23T15:35:19.870Z,24.70
2022-09-23T15:37:50.320Z,24.60
2022-09-23T15:40:28.976Z,24.60
2022-09-23T15:42:59.066Z,24.50
2022-09-23T15:45:34.364Z,24.50
2022-09-23T15:48:08.596Z,24.40
2022-09-23T15:50:37.555Z,24.40
2022-09-23T15:53:06.912Z,24.30
2022-09-23T15:55:35.123Z,24.20
2022-09-23T15:58:03.423Z,24.00
2022-09-23T16:00:31.771Z,23.90
2022-09-23T16:03:01.119Z,23.70
2022-09-23T16:05:37.890Z,23.50
2022-09-23T16:08:09.301Z,23.40
2022-09-23T16:10:38.713Z,23.30
2022-09-23T16:13:12.165Z,23.10
2022-09-23T16:15:40.982Z,23.00
2022-09-23T16:18:10.143Z,23.00
2022-09-23T16:20:42.392Z,22.90
2022-09-23T16:23:34.343Z,22.80
2022-09-23T16:26:05.569Z,22.70
2022-09-23T16:28:33.899Z,22.70
2022-09-23T16:31:02.158Z,22.60
2022-09-23T16:33:30.477Z,22.50
2022-09-23T16:36:01.186Z,22.50
2022-09-23T16:38:30.189Z,22.50
2022-09-23T16:41:00.837Z,22.40
2022-09-23T16:43:31.697Z,22.40
2022-09-23T16:45:59.978Z,22.30
2022-09-23T16:48:28.251Z,22.20
2022-09-23T16:50:56.474Z,22.20
2022-09-23T16:53:26.449Z,22.20
2022-09-23T16:55:54.591Z,22.10
2022-09-23T16:58:22.725Z,22.00
2022-09-23T17:01:08.232Z,21.90
2022-09-23T17:03:42.383Z,21.80
2022-09-23T17:06:13.279Z,21.60
2022-09-23T17:08:44.830Z,21.40
2022-09-23T17:11:14.549Z,21.30
2022-09-23T17:13:42.816Z,21.20
2022-09-23T17:16:11.836Z,21.10
2022-09-23T17:18:40.470Z,21.00
2022-09-23T17:21:09.702Z,20.90
2022-09-23T17:23:38.394Z,20.80
2022-09-23T17:26:09.924Z,20.70
2022-09-23T17:28:38.430Z,20.60
2022-09-23T17:31:07.706Z,20.60
2022-09-23T17:33:37.717Z,20.50
2022-09-23T17:36:11.508Z,20.40
2022-09-23T17:38:40.240Z,20.40
2022-09-23T17:41:10.573Z,20.30
2022-09-23T17:43:39.305Z,20.20
2022-09-23T17:46:09.973Z,20.10
2022-09-23T17:48:41.485Z,20.10
2022-09-23T17:51:13.807Z,20.00
2022-09-23T17:53:43.646Z,19.90
2022-09-23T17:56:16.350Z,19.90
2022-09-23T17:58:45.945Z,19.80
2022-09-23T18:01:18.610Z,19.70
2022-09-23T18:03:47.429Z,19.70
2022-09-23T18:06:17.816Z,19.60
2022-09-23T18:08:47.826Z,19.60
2022-09-23T18:11:19.614Z,19.50
2022-09-23T18:13:52.579Z,19.50
2022-09-23T18:16:22.196Z,19.40
2022-09-23T18:18:53.698Z,19.40
2022-09-23T18:21:22.715Z,19.30
2022-09-23T18:23:51.320Z,19.30
2022-09-23T18:26:22.500Z,19.20
2022-09-23T18:28:52.814Z,19.10
2022-09-23T18:31:22.546Z,19.00
2022-09-23T18:33:51.641Z,18.90
2022-09-23T18:36:20.384Z,18.90
2022-09-23T18:38:48.901Z,18.80
2022-09-23T18:41:17.599Z,18.70
2022-09-23T18:43:48.717Z,18.70
2022-09-23T18:46:18.618Z,18.70
2022-09-23T18:49:04.875Z,18.60
2022-09-23T18:51:36.486Z,18.60
2022-09-23T18:54:06.595Z,18.40
2022-09-23T18:56:42.242Z,18.30
2022-09-23T18:59:16.708Z,18.20
2022-09-23T19:01:46.043Z,18.10
2022-09-23T19:04:16.535Z,18.10
2022-09-23T19:06:44.685Z,18.00
2022-09-23T19:09:13.185Z,18.00
2022-09-23T19:11:41.261Z,18.00
2022-09-23T19:14:12.016Z,18.00
2022-09-23T19:16:41.376Z,18.00
2022-09-23T19:19:10.209Z,18.00
2022-09-23T19:21:38.380Z,17.90
2022-09-23T19:24:08.466Z,17.90
2022-09-23T19:26:38.712Z,17.80
2022-09-23T19:29:09.151Z,17.70
2022-09-23T19:31:40.659Z,17.70
2022-09-23T19:34:13.740Z,17.60
2022-09-23T19:36:43.691Z,17.60
2022-09-23T19:39:17.300Z,17.60
2022-09-23T19:41:46.124Z,17.50
2022-09-23T19:44:14.603Z,17.50
2022-09-23T19:46:45.720Z,17.50
2022-09-23T19:49:14.499Z,17.40
2022-09-23T19:51:44.108Z,17.40
2022-09-23T19:54:13.015Z,17.40
2022-09-23T19:56:41.383Z,17.40
2022-09-23T19:59:09.541Z,17.40
2022-09-23T20:01:37.858Z,17.40
2022-09-23T20:04:07.605Z,17.40
2022-09-23T20:06:38.242Z,17.30
2022-09-23T20:09:06.763Z,17.30
2022-09-23T20:11:35.269Z,17.30
2022-09-23T20:14:06.540Z,17.30
2022-09-23T20:16:37.335Z,17.20
2022-09-23T20:19:07.473Z,17.20
2022-09-23T20:21:35.951Z,17.10
2022-09-23T20:24:07.789Z,17.10
2022-09-23T20:26:53.860Z,17.10
2022-09-23T20:29:21.987Z,17.00
2022-09-23T20:31:50.126Z,17.00
2022-09-23T20:34:21.187Z,17.00
2022-09-23T20:36:49.397Z,16.90
2022-09-23T20:39:17.789Z,16.90
2022-09-23T20:41:46.047Z,16.90
2022-09-23T20:44:14.416Z,16.90
2022-09-23T20:46:48.304Z,16.80
2022-09-23T20:49:17.218Z,16.80
2022-09-23T20:51:48.732Z,16.70
2022-09-23T20:54:19.060Z,16.70
2022-09-23T20:56:47.419Z,16.60
2022-09-23T20:59:18.137Z,16.60
2022-09-23T21:01:47.900Z,16.50
2022-09-23T21:04:16.473Z,16.50
2022-09-23T21:06:45.973Z,16.40
2022-09-23T21:09:14.116Z,16.40
2022-09-23T21:11:42.400Z,16.30
2022-09-23T21:14:11.324Z,16.30
2022-09-23T21:16:39.737Z,16.20
2022-09-23T21:19:08.686Z,16.20
2022-09-23T21:21:37.006Z,16.20
2022-09-23T21:24:39.759Z,16.10
2022-09-23T21:26:55.136Z,16.00
2022-09-23T21:29:23.431Z,15.90
2022-09-23T21:31:51.640Z,15.80
2022-09-23T21:34:19.971Z,15.70
2022-09-23T21:36:49.297Z,15.60
2022-09-23T21:39:19.451Z,15.60
2022-09-23T21:41:47.792Z,15.50
2022-09-23T21:44:16.311Z,15.50
2022-09-23T21:46:44.600Z,15.40
2022-09-23T21:49:13.209Z,15.40
2022-09-23T21:51:42.317Z,15.30
2022-09-23T21:54:14.472Z,15.30
2022-09-23T21:56:45.131Z,15.20
2022-09-23T21:59:14.023Z,15.10
2022-09-23T22:01:44.474Z,15.10
2022-09-23T22:04:17.125Z,15.00
2022-09-23T22:06:46.185Z,14.90
2022-09-23T22:09:16.860Z,14.90
2022-09-23T22:12:04.294Z,14.80
2022-09-23T22:14:32.775Z,14.80
2022-09-23T22:17:02.615Z,14.80
2022-09-23T22:19:35.351Z,14.80
2022-09-23T22:22:07.347Z,14.80
2022-09-23T22:24:35.551Z,14.80
2022-09-23T22:27:05.399Z,14.80
2022-09-23T22:29:51.155Z,14.70
2022-09-23T22:32:36.944Z,14.70
2022-09-23T22:35:05.635Z,14.60
2022-09-23T22:37:35.655Z,14.60
2022-09-23T22:40:05.616Z,14.60
2022-09-23T22:42:36.259Z,14.50
2022-09-23T22:45:05.982Z,14.50
2022-09-23T22:47:37.895Z,14.50
2022-09-23T22:50:07.119Z,14.50
2022-09-23T22:52:35.581Z,14.40
2022-09-23T22:55:04.486Z,14.40
2022-09-23T22:57:34.152Z,14.40
2022-09-23T23:00:02.723Z,14.30
2022-09-23T23:02:31.482Z,14.30
2022-09-23T23:05:00.453Z,14.30
2022-09-23T23:07:28.614Z,14.30
2022-09-23T23:09:56.703Z,14.20
2022-09-23T23:12:24.805Z,14.20
2022-09-23T23:14:54.856Z,14.20
2022-09-23T23:17:23.051Z,14.20
2022-09-23T23:19:51.574Z,14.20
2022-09-23T23:22:19.670Z,14.20
2022-09-23T23:24:47.763Z,14.10
2022-09-23T23:27:16.055Z,14.00
2022-09-23T23:29:46.541Z,14.00
2022-09-23T23:32:16.811Z,13.90
2022-09-23T23:34:45.056Z,13.90
2022-09-23T23:37:13.925Z,13.90
2022-09-23T23:39:43.931Z,13.90
2022-09-23T23:42:12.209Z,13.90
2022-09-23T23:44:40.290Z,13.90
2022-09-23T23:47:08.503Z,13.90
2022-09-23T23:49:38.083Z,13.90
2022-09-23T23:52:06.206Z,13.90
2022-09-23T23:54:34.302Z,13.90
2022-09-23T23:57:02.521Z,13.90
2022-09-23T23:59:31.161Z,13.90
